Webcam Webcam


Onweer radar blitzortung!


Regen radar rain snow radar


U vindt ons ook hier:

Het Weer Aktueel

European Weather Network

AWEKAS

Weather Underground


Het weer levert geen direct gevaar op.    Er zijn geen waarschuwingen afgegeven.

METAR rapporten vliegvelden

  
EHVK - Volkel, Noord Brabant, NL
Gewijzigd: 19-08-2017 09:07
Grotendeels bewolkt
Grotendeels bewolkt  
 Wind vanuit ZZW
Wind: ZZW 28 km/h
Temperatuur:  14°C
Dauwpunt:  12°C
Vochtigheid:  88%
Barometer:  1014 hPa
Bewolking:  Grotendeels bewolkt
Zicht:  10 km
Bewolking:  Grotendeels bewolkt 427 m
Grotendeels bewolkt 518 m
Grotendeels bewolkt 610 m
2017/08/19 07:07 EHVK 190707Z AUTO 21015KT 170V260 9999 BKN014 BKN017 BKN020 14/12 Q1014 GRN
EHEH - Eindhoven, Noord Brabant, NL
Gewijzigd: 19-08-2017 09:03
Bewolking
Bewolking  
 Wind vanuit ZZW
Wind: ZZW 24 km/h
Temperatuur:  14°C
Dauwpunt:  12°C
Vochtigheid:  88%
Barometer:  1015 hPa
Bewolking:  Bewolking
Zicht:  10 km
Bewolking:  Gedeeltelijk bewolkt 335 m
Gedeeltelijk bewolkt 427 m
Bewolking 2012 m
2017/08/19 07:03 EHEH 190703Z AUTO 21013KT 9999 SCT011 SCT014 OVC066 14/12 Q1015 GRN 21012KT 9999 FEW020 SCT040 BKN060 TEMPO 25015G25KT 4000 SHRA FEW010 SCT018CB
EHGR - Gilze Rijen, Noord Brabant, NL
Gewijzigd: 19-08-2017 09:02
Bewolking
Bewolking  
 Wind vanuit ZZW
Wind: ZZW 20 km/h
Temperatuur:  14°C
Dauwpunt:  12°C
Vochtigheid:  88%
Barometer:  1014 hPa
Bewolking:  Bewolking
Zicht:  10 km
Bewolking:  Licht bewolkt 396 m
Grotendeels bewolkt 518 m
Bewolking 640 m
2017/08/19 07:02 EHGR 190702Z AUTO 21011KT 170V260 9999 FEW013 BKN017 OVC021 14/12 Q1014 WHT
EHWO - Woensdrecht, Noord Brabant, NL
Gewijzigd: 19-08-2017 09:08
Grotendeels bewolkt
Grotendeels bewolkt  
 Wind vanuit ZW
Wind: ZW 20 km/h
Temperatuur:  14°C
Dauwpunt:  12°C
Vochtigheid:  88%
Barometer:  1014 hPa
Bewolking:  Grotendeels bewolkt
Zicht:  10 km
Bewolking:  Licht bewolkt 305 m
Gedeeltelijk bewolkt 457 m
Grotendeels bewolkt 701 m
2017/08/19 07:08 EHWO 190708Z AUTO 23011KT 200V260 9999 FEW010 SCT015 BKN023 14/12 Q1014 WHT
EHBK - Maastricht, Limburg, NL
Gewijzigd: 19-08-2017 08:55
Gedeeltelijk bewolkt
Gedeeltelijk bewolkt  
 Wind vanuit ZW
Wind: ZW 26 km/h
Temperatuur:  14°C
Dauwpunt:  11°C
Vochtigheid:  82%
Barometer:  1016 hPa
Bewolking:  Gedeeltelijk bewolkt
Zicht:  10 km
Bewolking:  Gedeeltelijk bewolkt 762 m
2017/08/19 06:55 EHBK 190655Z AUTO 22014KT 9999 SCT025 14/11 Q1016 NOSIG
EHDL - Arnhem/Deelen, Gelderland, NL
Gewijzigd: 19-08-2017 08:55
Heavy drizzle rain, Bewolking
Heavy drizzle rain, Bewolking  
 Wind vanuit ZW
Wind: ZW 17 km/h
Temperatuur:  13°C
Dauwpunt:  12°C
Vochtigheid:  94%
Barometer:  1013 hPa
Samenvatting:  Heavy Drizzle Rain
Bewolking:  Bewolking
Zicht:  9 km
Bewolking:  Licht bewolkt 305 m
Grotendeels bewolkt 396 m
Bewolking 457 m
2017/08/19 06:55 EHDL 190655Z AUTO 22009KT 160V260 9000 +DZRA FEW010 BKN013 OVC015 13/12 Q1013 GRN
EHAM - Amsterdam/Schiphol, Noord Holland, NL
Gewijzigd: 19-08-2017 08:55
Gedeeltelijk bewolkt
Gedeeltelijk bewolkt  
 Wind vanuit WZW
Wind: WZW 15 km/h
Temperatuur:  15°C
Dauwpunt:  12°C
Vochtigheid:  82%
Barometer:  1012 hPa
Bewolking:  Gedeeltelijk bewolkt
Zicht:  10 km
Bewolking:  Licht bewolkt 610 m
Gedeeltelijk bewolkt 1219 m
2017/08/19 06:55 EHAM 190655Z 25008KT 9999 FEW020CB SCT040 15/12 Q1012 NOSIG
EHGG - Groningen/Eelde, Groningen, NL
Gewijzigd: 19-08-2017 08:55
Grotendeels bewolkt
Grotendeels bewolkt  
 Wind vanuit ZZW
Wind: ZZW 17 km/h
Temperatuur:  13°C
Dauwpunt:  12°C
Vochtigheid:  94%
Barometer:  1011 hPa
Bewolking:  Grotendeels bewolkt
Zicht:  10 km
Bewolking:  Gedeeltelijk bewolkt 213 m
Grotendeels bewolkt 244 m
Grotendeels bewolkt 274 m
2017/08/19 06:55 EHGG 190655Z AUTO 21009KT 180V250 9999 SCT007 BKN008 BKN009 13/12 Q1011 BECMG BKN015
EHLW - Leeuwarden, Friesland, NL
Gewijzigd: 19-08-2017 08:55
Light drizzle rain, Grotendeels bewolkt
Light drizzle rain, Grotendeels bewolkt  
 Wind vanuit ZZW
Wind: ZZW 15 km/h
Temperatuur:  14°C
Dauwpunt:  12°C
Vochtigheid:  88%
Barometer:  1011 hPa
Samenvatting:  Light Drizzle Rain
Bewolking:  Grotendeels bewolkt
Zicht:  10 km
Bewolking:  Licht bewolkt 1158 m
Gedeeltelijk bewolkt 1311 m
Grotendeels bewolkt 1463 m
2017/08/19 06:55 EHLW 190655Z AUTO 21008KT 170V240 9999 -DZRA FEW038 SCT043 BKN048 14/12 Q1011 BLU
EHKD - De Kooy, Noord Holland, NL
Gewijzigd: 19-08-2017 09:09
Gedeeltelijk bewolkt
Gedeeltelijk bewolkt  
 Wind vanuit W
Wind: W 20 km/h
Temperatuur:  16°C
Dauwpunt:  12°C
Vochtigheid:  77%
Barometer:  1011 hPa
Bewolking:  Gedeeltelijk bewolkt
Zicht:  10 km
Bewolking:  Gedeeltelijk bewolkt 671 m
Gedeeltelijk bewolkt 3353 m
2017/08/19 07:09 EHKD 190709Z AUTO 26011KT 230V290 9999 SCT022 SCT110 16/12 Q1011 WHT 24008KT 9999 SCT017 TEMPO 4500 SHRA FEW015CB BKN020
EHRD - Rotterdam, Zuid Holland, NL
Gewijzigd: 19-08-2017 08:55
Grotendeels bewolkt
Grotendeels bewolkt  
 Wind vanuit ZW
Wind: ZW 15 km/h
Temperatuur:  14°C
Dauwpunt:  13°C
Vochtigheid:  94%
Barometer:  1013 hPa
Bewolking:  Grotendeels bewolkt
Zicht:  10 km
Bewolking:  Gedeeltelijk bewolkt 1158 m
Grotendeels bewolkt 1311 m
Grotendeels bewolkt 1463 m
2017/08/19 06:55 EHRD 190655Z AUTO 23008KT 210V270 9999 SCT038 BKN043 BKN048 14/13 Q1013 REDZ TEMPO 7000 -SHRA
EHFS - Vlissingen, Zeeland, NL
Gewijzigd: 19-08-2017 08:55
Licht bewolkt
Licht bewolkt  
 Wind vanuit W
Wind: W 33 km/h
Temperatuur:  16°C
Dauwpunt:  11°C
Vochtigheid:  72%
Barometer:  1014 hPa
Bewolking:  Licht bewolkt
Zicht:  10 km
Bewolking:  Licht bewolkt 671 m
2017/08/19 06:55 EHFS 190655Z AUTO 28018KT 240V310 9999 FEW022/// 16/11 Q1014

Script ontwikkeld door   Saratoga-weather.org Aangepast voor de template door  Weerstation Leuven

Apparatuur in gebruik:


Weerstation
Davis VP2

Weerprogramma
WeatherLink

Weercomputer
Sponsor

Webleverancier

Davis VP2

WeatherLink

Sponsor